Terminal Aerodrome Forecast
Issued by NWS Quad Cities IA IL

Current Version | Previous Version | Text Only | Print | Product List | Glossary On
Versions: 1 2 3 4 5 6 7 8 9 10 11 12 13 14 15 16 17 18 19
000
FTUS43 KDVN 011723
TAFDBQ
TAF
KDBQ 011723Z 0118/0218 31016KT P6SM BKN011 BKN014 OVC019
      TEMPO 0118/0119 1 1/2SM -SN FEW003 BKN010
     FM011900 31019G30KT P6SM VCSH OVC010
     FM012300 31017G27KT P6SM OVC015
     FM020300 30009KT P6SM BKN045
     FM021400 28007KT 3SM -SN BKN025=

USA.gov is the U.S. government's official web portal to all federal, state and local government web resources and services.